Terminal Aerodrome Forecast
Issued by NWS

Home | Current Version | Previous Version | Text Only | Print | Product List | Glossary On
Versions: 1 2 3 4 5 6 7 8 9 10 11 12 13 14 15 16 17 18 19 20 21
000
FTUS45 KTFX 281500 AAA
TAFHVR
TAF AMD
KHVR 281541Z 2816/2912 VRB04KT 1/2SM FZFG VV002
      TEMPO 2816/2818 5SM BR SCT002
     FM281800 24006KT P6SM VCFG SCT002 BKN100
     FM282100 35012G22KT P6SM VCSH SCT025 OVC040
     FM290100 35014KT 2SM -SN BR SCT008 OVC015=

USA.gov is the U.S. government's official web portal to all federal, state and local government web resources and services.